sensor_id;sensor_type;location;lat;lon;timestamp;temperature;humidity
52656;SHT85;35474;51.032;6.998;2022-12-07T00:02:03;5.11;93.49
52656;SHT85;35474;51.032;6.998;2022-12-07T00:04:29;5.14;93.39
52656;SHT85;35474;51.032;6.998;2022-12-07T00:06:56;5.16;93.35
52656;SHT85;35474;51.032;6.998;2022-12-07T00:09:22;5.11;93.09
52656;SHT85;35474;51.032;6.998;2022-12-07T00:11:50;5.17;93.24
52656;SHT85;35474;51.032;6.998;2022-12-07T00:14:17;5.16;93.10
52656;SHT85;35474;51.032;6.998;2022-12-07T00:16:44;5.18;93.16
52656;SHT85;35474;51.032;6.998;2022-12-07T00:19:12;5.17;93.35
52656;SHT85;35474;51.032;6.998;2022-12-07T00:21:39;5.17;93.39
52656;SHT85;35474;51.032;6.998;2022-12-07T00:24:06;5.20;93.37
52656;SHT85;35474;51.032;6.998;2022-12-07T00:26:34;5.20;93.42
52656;SHT85;35474;51.032;6.998;2022-12-07T00:29:04;5.17;93.29
52656;SHT85;35474;51.032;6.998;2022-12-07T00:31:51;5.18;93.29
52656;SHT85;35474;51.032;6.998;2022-12-07T00:34:18;5.21;93.21
52656;SHT85;35474;51.032;6.998;2022-12-07T00:36:48;5.20;93.27
52656;SHT85;35474;51.032;6.998;2022-12-07T00:39:18;5.21;93.30
52656;SHT85;35474;51.032;6.998;2022-12-07T00:41:44;5.23;93.15
52656;SHT85;35474;51.032;6.998;2022-12-07T00:44:11;5.21;93.07
52656;SHT85;35474;51.032;6.998;2022-12-07T00:46:37;5.21;93.06
52656;SHT85;35474;51.032;6.998;2022-12-07T00:49:04;5.16;93.08
52656;SHT85;35474;51.032;6.998;2022-12-07T00:51:31;5.20;93.13
52656;SHT85;35474;51.032;6.998;2022-12-07T00:53:58;5.23;93.23
52656;SHT85;35474;51.032;6.998;2022-12-07T00:56:25;5.23;93.19
52656;SHT85;35474;51.032;6.998;2022-12-07T01:00:35;5.14;93.14
52656;SHT85;35474;51.032;6.998;2022-12-07T01:03:04;5.18;92.95
52656;SHT85;35474;51.032;6.998;2022-12-07T01:05:36;5.14;93.13
52656;SHT85;35474;51.032;6.998;2022-12-07T01:08:02;5.11;93.15
52656;SHT85;35474;51.032;6.998;2022-12-07T01:10:30;5.07;93.09
52656;SHT85;35474;51.032;6.998;2022-12-07T01:12:57;5.10;93.08
52656;SHT85;35474;51.032;6.998;2022-12-07T01:15:25;5.14;93.06
52656;SHT85;35474;51.032;6.998;2022-12-07T01:17:53;5.13;92.98
52656;SHT85;35474;51.032;6.998;2022-12-07T01:20:21;5.13;92.98
52656;SHT85;35474;51.032;6.998;2022-12-07T01:22:48;5.20;92.86
52656;SHT85;35474;51.032;6.998;2022-12-07T01:25:15;5.07;92.86
52656;SHT85;35474;51.032;6.998;2022-12-07T01:27:42;5.11;92.84
52656;SHT85;35474;51.032;6.998;2022-12-07T01:30:09;5.10;92.77
52656;SHT85;35474;51.032;6.998;2022-12-07T01:32:37;5.16;92.73
52656;SHT85;35474;51.032;6.998;2022-12-07T01:35:06;5.17;92.67
52656;SHT85;35474;51.032;6.998;2022-12-07T01:37:35;5.13;92.68
52656;SHT85;35474;51.032;6.998;2022-12-07T01:40:03;5.16;92.81
52656;SHT85;35474;51.032;6.998;2022-12-07T01:42:34;5.11;92.88
52656;SHT85;35474;51.032;6.998;2022-12-07T01:48:05;5.13;92.89
52656;SHT85;35474;51.032;6.998;2022-12-07T01:50:34;5.08;93.09
52656;SHT85;35474;51.032;6.998;2022-12-07T01:53:02;5.04;93.29
52656;SHT85;35474;51.032;6.998;2022-12-07T01:55:32;5.07;93.50
52656;SHT85;35474;51.032;6.998;2022-12-07T01:58:01;5.04;93.46
52656;SHT85;35474;51.032;6.998;2022-12-07T02:00:28;5.01;93.61
52656;SHT85;35474;51.032;6.998;2022-12-07T02:02:55;5.06;93.52
52656;SHT85;35474;51.032;6.998;2022-12-07T02:05:29;5.06;93.45
52656;SHT85;35474;51.032;6.998;2022-12-07T02:07:56;5.04;93.59
52656;SHT85;35474;51.032;6.998;2022-12-07T02:10:27;5.04;93.47
52656;SHT85;35474;51.032;6.998;2022-12-07T02:15:47;5.07;93.62
52656;SHT85;35474;51.032;6.998;2022-12-07T02:21:29;5.03;93.61
52656;SHT85;35474;51.032;6.998;2022-12-07T02:30:06;5.07;93.45
52656;SHT85;35474;51.032;6.998;2022-12-07T02:32:39;5.07;93.39
52656;SHT85;35474;51.032;6.998;2022-12-07T02:35:28;5.10;93.34
52656;SHT85;35474;51.032;6.998;2022-12-07T02:38:14;5.08;93.40
52656;SHT85;35474;51.032;6.998;2022-12-07T02:41:09;5.08;93.40
52656;SHT85;35474;51.032;6.998;2022-12-07T02:43:46;5.10;93.36
52656;SHT85;35474;51.032;6.998;2022-12-07T02:46:20;5.07;93.24
52656;SHT85;35474;51.032;6.998;2022-12-07T02:48:50;5.07;93.23
52656;SHT85;35474;51.032;6.998;2022-12-07T02:51:18;5.07;93.18
52656;SHT85;35474;51.032;6.998;2022-12-07T02:53:45;5.10;93.26
52656;SHT85;35474;51.032;6.998;2022-12-07T03:01:51;5.13;93.17
52656;SHT85;35474;51.032;6.998;2022-12-07T03:07:24;5.11;93.20
52656;SHT85;35474;51.032;6.998;2022-12-07T03:10:07;5.17;93.22
52656;SHT85;35474;51.032;6.998;2022-12-07T03:12:46;5.20;93.20
52656;SHT85;35474;51.032;6.998;2022-12-07T03:15:31;5.13;93.06
52656;SHT85;35474;51.032;6.998;2022-12-07T03:18:06;5.13;93.14
52656;SHT85;35474;51.032;6.998;2022-12-07T03:20:35;5.13;93.08
52656;SHT85;35474;51.032;6.998;2022-12-07T03:23:06;5.14;93.17
52656;SHT85;35474;51.032;6.998;2022-12-07T03:25:39;5.13;93.09
52656;SHT85;35474;51.032;6.998;2022-12-07T03:28:10;5.18;93.15
52656;SHT85;35474;51.032;6.998;2022-12-07T03:30:47;5.20;93.02
52656;SHT85;35474;51.032;6.998;2022-12-07T03:33:20;5.23;92.85
52656;SHT85;35474;51.032;6.998;2022-12-07T03:36:01;5.24;92.70
52656;SHT85;35474;51.032;6.998;2022-12-07T03:41:23;5.27;92.50
52656;SHT85;35474;51.032;6.998;2022-12-07T03:43:53;5.18;92.47
52656;SHT85;35474;51.032;6.998;2022-12-07T03:49:08;5.27;92.56
52656;SHT85;35474;51.032;6.998;2022-12-07T03:54:23;5.34;91.98
52656;SHT85;35474;51.032;6.998;2022-12-07T03:56:55;5.32;92.40
52656;SHT85;35474;51.032;6.998;2022-12-07T03:59:24;5.30;92.63
52656;SHT85;35474;51.032;6.998;2022-12-07T04:01:54;5.42;92.63
52656;SHT85;35474;51.032;6.998;2022-12-07T04:04:23;5.20;92.69
52656;SHT85;35474;51.032;6.998;2022-12-07T04:06:51;5.23;92.89
52656;SHT85;35474;51.032;6.998;2022-12-07T04:09:18;5.17;93.03
52656;SHT85;35474;51.032;6.998;2022-12-07T04:11:45;5.18;93.20
52656;SHT85;35474;51.032;6.998;2022-12-07T04:14:11;5.27;93.10
52656;SHT85;35474;51.032;6.998;2022-12-07T04:17:06;5.18;93.20
52656;SHT85;35474;51.032;6.998;2022-12-07T04:19:32;5.25;93.33
52656;SHT85;35474;51.032;6.998;2022-12-07T04:22:01;5.28;93.11
52656;SHT85;35474;51.032;6.998;2022-12-07T04:24:29;5.39;92.80
52656;SHT85;35474;51.032;6.998;2022-12-07T04:26:56;5.44;92.73
52656;SHT85;35474;51.032;6.998;2022-12-07T04:29:23;5.32;92.51
52656;SHT85;35474;51.032;6.998;2022-12-07T04:31:50;5.28;92.51
52656;SHT85;35474;51.032;6.998;2022-12-07T04:34:17;5.27;92.74
52656;SHT85;35474;51.032;6.998;2022-12-07T04:36:45;5.30;92.60
52656;SHT85;35474;51.032;6.998;2022-12-07T04:39:20;5.24;92.58
52656;SHT85;35474;51.032;6.998;2022-12-07T04:41:49;5.27;92.56
52656;SHT85;35474;51.032;6.998;2022-12-07T04:44:16;5.18;92.66
52656;SHT85;35474;51.032;6.998;2022-12-07T04:46:43;5.17;92.74
52656;SHT85;35474;51.032;6.998;2022-12-07T04:49:11;5.20;92.77
52656;SHT85;35474;51.032;6.998;2022-12-07T04:51:39;5.16;92.72
52656;SHT85;35474;51.032;6.998;2022-12-07T04:54:06;5.13;92.91
52656;SHT85;35474;51.032;6.998;2022-12-07T04:56:33;5.16;92.86
52656;SHT85;35474;51.032;6.998;2022-12-07T04:59:01;5.08;92.73
52656;SHT85;35474;51.032;6.998;2022-12-07T05:01:29;5.07;92.81
52656;SHT85;35474;51.032;6.998;2022-12-07T05:03:55;5.00;92.86
52656;SHT85;35474;51.032;6.998;2022-12-07T05:06:22;5.01;92.74
52656;SHT85;35474;51.032;6.998;2022-12-07T05:08:49;5.06;92.83
52656;SHT85;35474;51.032;6.998;2022-12-07T05:11:16;5.06;92.83
52656;SHT85;35474;51.032;6.998;2022-12-07T05:14:02;4.96;92.82
52656;SHT85;35474;51.032;6.998;2022-12-07T05:16:30;4.94;92.98
52656;SHT85;35474;51.032;6.998;2022-12-07T05:18:57;4.91;92.98
52656;SHT85;35474;51.032;6.998;2022-12-07T05:21:24;5.07;93.06
52656;SHT85;35474;51.032;6.998;2022-12-07T05:23:51;4.97;93.09
52656;SHT85;35474;51.032;6.998;2022-12-07T05:26:18;5.01;93.06
52656;SHT85;35474;51.032;6.998;2022-12-07T05:28:45;5.06;93.06
52656;SHT85;35474;51.032;6.998;2022-12-07T05:31:15;5.06;92.88
52656;SHT85;35474;51.032;6.998;2022-12-07T05:33:42;5.13;92.97
52656;SHT85;35474;51.032;6.998;2022-12-07T05:36:11;5.11;92.87
52656;SHT85;35474;51.032;6.998;2022-12-07T05:38:39;5.08;92.86
52656;SHT85;35474;51.032;6.998;2022-12-07T05:41:06;5.01;92.97
52656;SHT85;35474;51.032;6.998;2022-12-07T05:43:33;5.10;92.99
52656;SHT85;35474;51.032;6.998;2022-12-07T05:46:00;5.14;93.05
52656;SHT85;35474;51.032;6.998;2022-12-07T05:48:27;5.21;92.94
52656;SHT85;35474;51.032;6.998;2022-12-07T05:50:54;5.34;92.76
52656;SHT85;35474;51.032;6.998;2022-12-07T05:53:23;5.24;92.73
52656;SHT85;35474;51.032;6.998;2022-12-07T05:55:51;5.20;92.72
52656;SHT85;35474;51.032;6.998;2022-12-07T05:58:18;5.20;92.33
52656;SHT85;35474;51.032;6.998;2022-12-07T06:01:04;5.16;92.67
52656;SHT85;35474;51.032;6.998;2022-12-07T06:03:30;5.16;92.75
52656;SHT85;35474;51.032;6.998;2022-12-07T06:05:57;5.07;92.86
52656;SHT85;35474;51.032;6.998;2022-12-07T06:08:24;5.10;92.85
52656;SHT85;35474;51.032;6.998;2022-12-07T06:10:51;5.11;92.93
52656;SHT85;35474;51.032;6.998;2022-12-07T06:13:38;5.03;92.50
52656;SHT85;35474;51.032;6.998;2022-12-07T06:16:12;4.91;92.18
52656;SHT85;35474;51.032;6.998;2022-12-07T06:18:39;4.83;92.55
52656;SHT85;35474;51.032;6.998;2022-12-07T06:21:06;4.79;92.72
52656;SHT85;35474;51.032;6.998;2022-12-07T06:23:33;4.80;92.81
52656;SHT85;35474;51.032;6.998;2022-12-07T06:26:00;4.83;92.79
52656;SHT85;35474;51.032;6.998;2022-12-07T06:28:27;4.81;92.73
52656;SHT85;35474;51.032;6.998;2022-12-07T06:31:00;4.97;92.61
52656;SHT85;35474;51.032;6.998;2022-12-07T06:33:28;4.96;92.63
52656;SHT85;35474;51.032;6.998;2022-12-07T06:36:03;4.96;92.68
52656;SHT85;35474;51.032;6.998;2022-12-07T06:38:31;4.94;92.64
52656;SHT85;35474;51.032;6.998;2022-12-07T06:40:58;4.91;92.58
52656;SHT85;35474;51.032;6.998;2022-12-07T06:43:25;4.94;92.56
52656;SHT85;35474;51.032;6.998;2022-12-07T06:46:19;4.94;92.25
52656;SHT85;35474;51.032;6.998;2022-12-07T06:48:46;4.98;92.10
52656;SHT85;35474;51.032;6.998;2022-12-07T06:51:15;4.96;92.02
52656;SHT85;35474;51.032;6.998;2022-12-07T06:53:42;5.00;91.77
52656;SHT85;35474;51.032;6.998;2022-12-07T06:56:09;4.94;91.65
52656;SHT85;35474;51.032;6.998;2022-12-07T06:58:36;4.67;92.49
52656;SHT85;35474;51.032;6.998;2022-12-07T07:01:03;4.52;93.36
52656;SHT85;35474;51.032;6.998;2022-12-07T07:03:35;4.53;93.46
52656;SHT85;35474;51.032;6.998;2022-12-07T07:06:01;4.55;93.75
52656;SHT85;35474;51.032;6.998;2022-12-07T07:08:28;4.63;93.96
52656;SHT85;35474;51.032;6.998;2022-12-07T07:10:55;4.65;94.09
52656;SHT85;35474;51.032;6.998;2022-12-07T07:13:22;4.63;93.99
52656;SHT85;35474;51.032;6.998;2022-12-07T07:15:48;4.84;93.94
52656;SHT85;35474;51.032;6.998;2022-12-07T07:18:15;4.77;93.86
52656;SHT85;35474;51.032;6.998;2022-12-07T07:20:41;4.73;93.92
52656;SHT85;35474;51.032;6.998;2022-12-07T07:23:08;4.90;93.83
52656;SHT85;35474;51.032;6.998;2022-12-07T07:25:38;4.90;93.71
52656;SHT85;35474;51.032;6.998;2022-12-07T07:28:04;4.88;93.53
52656;SHT85;35474;51.032;6.998;2022-12-07T07:32:34;4.72;93.35
52656;SHT85;35474;51.032;6.998;2022-12-07T07:35:01;4.73;93.31
52656;SHT85;35474;51.032;6.998;2022-12-07T07:37:28;4.90;93.31
52656;SHT85;35474;51.032;6.998;2022-12-07T07:39:54;4.97;92.90
52656;SHT85;35474;51.032;6.998;2022-12-07T07:42:21;4.60;92.86
52656;SHT85;35474;51.032;6.998;2022-12-07T07:44:48;4.73;93.19
52656;SHT85;35474;51.032;6.998;2022-12-07T07:47:15;4.77;93.08
52656;SHT85;35474;51.032;6.998;2022-12-07T07:49:41;4.69;93.03
52656;SHT85;35474;51.032;6.998;2022-12-07T07:52:13;4.70;92.81
52656;SHT85;35474;51.032;6.998;2022-12-07T07:54:40;4.73;92.77
52656;SHT85;35474;51.032;6.998;2022-12-07T07:57:07;4.75;92.80
52656;SHT85;35474;51.032;6.998;2022-12-07T07:59:36;4.81;92.83
52656;SHT85;35474;51.032;6.998;2022-12-07T08:02:03;4.80;92.84
52656;SHT85;35474;51.032;6.998;2022-12-07T08:04:29;4.97;92.61
52656;SHT85;35474;51.032;6.998;2022-12-07T08:06:56;4.91;92.77
52656;SHT85;35474;51.032;6.998;2022-12-07T08:09:23;4.91;92.47
52656;SHT85;35474;51.032;6.998;2022-12-07T08:11:49;4.88;92.54
52656;SHT85;35474;51.032;6.998;2022-12-07T08:14:16;4.94;92.59
52656;SHT85;35474;51.032;6.998;2022-12-07T08:16:43;4.94;92.51
52656;SHT85;35474;51.032;6.998;2022-12-07T08:19:09;4.91;92.58
52656;SHT85;35474;51.032;6.998;2022-12-07T08:21:36;4.83;92.19
52656;SHT85;35474;51.032;6.998;2022-12-07T08:24:03;4.87;92.31
52656;SHT85;35474;51.032;6.998;2022-12-07T08:26:30;4.91;92.25
52656;SHT85;35474;51.032;6.998;2022-12-07T08:28:57;4.87;92.29
52656;SHT85;35474;51.032;6.998;2022-12-07T08:31:27;4.88;92.52
52656;SHT85;35474;51.032;6.998;2022-12-07T08:33:54;4.88;92.15
52656;SHT85;35474;51.032;6.998;2022-12-07T08:36:21;5.00;91.88
52656;SHT85;35474;51.032;6.998;2022-12-07T08:38:49;5.03;91.83
52656;SHT85;35474;51.032;6.998;2022-12-07T08:41:36;5.07;91.89
52656;SHT85;35474;51.032;6.998;2022-12-07T08:44:03;5.10;91.67
52656;SHT85;35474;51.032;6.998;2022-12-07T08:49:17;5.21;91.07
52656;SHT85;35474;51.032;6.998;2022-12-07T08:51:46;5.08;91.13
52656;SHT85;35474;51.032;6.998;2022-12-07T08:54:14;4.97;91.31
52656;SHT85;35474;51.032;6.998;2022-12-07T08:56:43;5.07;91.54
52656;SHT85;35474;51.032;6.998;2022-12-07T08:59:13;5.08;91.34
52656;SHT85;35474;51.032;6.998;2022-12-07T09:01:46;5.35;91.49
52656;SHT85;35474;51.032;6.998;2022-12-07T09:04:13;5.31;90.82
52656;SHT85;35474;51.032;6.998;2022-12-07T09:06:41;5.34;90.83
52656;SHT85;35474;51.032;6.998;2022-12-07T09:09:09;5.31;90.54
52656;SHT85;35474;51.032;6.998;2022-12-07T09:11:38;5.28;90.50
52656;SHT85;35474;51.032;6.998;2022-12-07T09:14:05;5.24;90.57
52656;SHT85;35474;51.032;6.998;2022-12-07T09:16:32;5.25;90.49
52656;SHT85;35474;51.032;6.998;2022-12-07T09:18:59;5.21;90.42
52656;SHT85;35474;51.032;6.998;2022-12-07T09:21:26;5.27;90.35
52656;SHT85;35474;51.032;6.998;2022-12-07T09:23:53;5.30;90.13
52656;SHT85;35474;51.032;6.998;2022-12-07T09:26:19;5.35;90.20
52656;SHT85;35474;51.032;6.998;2022-12-07T09:31:33;5.30;90.60
52656;SHT85;35474;51.032;6.998;2022-12-07T09:34:10;5.27;90.24
52656;SHT85;35474;51.032;6.998;2022-12-07T09:37:02;5.30;89.87
52656;SHT85;35474;51.032;6.998;2022-12-07T09:39:54;5.32;90.13
52656;SHT85;35474;51.032;6.998;2022-12-07T09:42:34;5.48;90.21
52656;SHT85;35474;51.032;6.998;2022-12-07T09:45:51;5.58;89.58
52656;SHT85;35474;51.032;6.998;2022-12-07T09:48:37;5.76;89.10
52656;SHT85;35474;51.032;6.998;2022-12-07T09:54:57;5.87;88.49
52656;SHT85;35474;51.032;6.998;2022-12-07T09:57:27;5.93;88.11
52656;SHT85;35474;51.032;6.998;2022-12-07T10:00:10;5.86;87.78
52656;SHT85;35474;51.032;6.998;2022-12-07T10:03:00;5.89;88.26
52656;SHT85;35474;51.032;6.998;2022-12-07T10:05:47;5.89;88.15
52656;SHT85;35474;51.032;6.998;2022-12-07T10:09:00;5.87;88.13
52656;SHT85;35474;51.032;6.998;2022-12-07T10:12:06;5.82;88.43
52656;SHT85;35474;51.032;6.998;2022-12-07T10:15:20;5.93;88.60
52656;SHT85;35474;51.032;6.998;2022-12-07T10:21:40;5.92;87.93
52656;SHT85;35474;51.032;6.998;2022-12-07T10:25:07;5.86;87.61
52656;SHT85;35474;51.032;6.998;2022-12-07T10:28:47;5.92;87.85
52656;SHT85;35474;51.032;6.998;2022-12-07T10:31:41;5.92;87.87
52656;SHT85;35474;51.032;6.998;2022-12-07T10:41:06;5.97;86.76
52656;SHT85;35474;51.032;6.998;2022-12-07T10:43:57;6.14;86.92
52656;SHT85;35474;51.032;6.998;2022-12-07T11:00:51;6.23;85.39
52656;SHT85;35474;51.032;6.998;2022-12-07T11:29:55;6.25;85.41
52656;SHT85;35474;51.032;6.998;2022-12-07T11:41:29;6.00;87.57
52656;SHT85;35474;51.032;6.998;2022-12-07T11:51:32;6.75;87.65
52656;SHT85;35474;51.032;6.998;2022-12-07T12:21:20;7.39;81.22
52656;SHT85;35474;51.032;6.998;2022-12-07T12:23:54;7.14;81.48
52656;SHT85;35474;51.032;6.998;2022-12-07T12:26:25;7.20;81.54
52656;SHT85;35474;51.032;6.998;2022-12-07T12:29:23;7.14;81.87
52656;SHT85;35474;51.032;6.998;2022-12-07T12:32:17;7.42;81.46
52656;SHT85;35474;51.032;6.998;2022-12-07T12:42:44;7.43;80.64
52656;SHT85;35474;51.032;6.998;2022-12-07T12:45:26;7.31;80.75
52656;SHT85;35474;51.032;6.998;2022-12-07T12:50:35;6.95;80.47
52656;SHT85;35474;51.032;6.998;2022-12-07T12:55:59;7.16;80.69
52656;SHT85;35474;51.032;6.998;2022-12-07T12:58:38;7.63;80.46
52656;SHT85;35474;51.032;6.998;2022-12-07T13:04:02;7.46;79.20
52656;SHT85;35474;51.032;6.998;2022-12-07T13:06:42;7.31;79.80
52656;SHT85;35474;51.032;6.998;2022-12-07T13:09:32;7.39;79.43
52656;SHT85;35474;51.032;6.998;2022-12-07T13:12:02;7.30;79.69
52656;SHT85;35474;51.032;6.998;2022-12-07T13:14:43;7.47;79.77
52656;SHT85;35474;51.032;6.998;2022-12-07T13:18:02;7.79;78.42
52656;SHT85;35474;51.032;6.998;2022-12-07T13:20:08;7.74;79.15
52656;SHT85;35474;51.032;6.998;2022-12-07T13:22:43;7.64;78.17
52656;SHT85;35474;51.032;6.998;2022-12-07T13:25:27;7.35;78.31
52656;SHT85;35474;51.032;6.998;2022-12-07T13:28:00;7.09;79.50
52656;SHT85;35474;51.032;6.998;2022-12-07T13:30:40;7.09;80.02
52656;SHT85;35474;51.032;6.998;2022-12-07T13:33:12;6.74;81.02
52656;SHT85;35474;51.032;6.998;2022-12-07T13:35:41;6.71;80.95
52656;SHT85;35474;51.032;6.998;2022-12-07T13:38:21;6.64;81.24
52656;SHT85;35474;51.032;6.998;2022-12-07T13:41:01;6.65;81.35
52656;SHT85;35474;51.032;6.998;2022-12-07T13:43:46;6.52;81.41
52656;SHT85;35474;51.032;6.998;2022-12-07T13:46:17;6.54;82.04
52656;SHT85;35474;51.032;6.998;2022-12-07T13:48:46;6.56;81.89
52656;SHT85;35474;51.032;6.998;2022-12-07T13:51:19;6.63;81.94
52656;SHT85;35474;51.032;6.998;2022-12-07T13:53:54;6.60;82.35
52656;SHT85;35474;51.032;6.998;2022-12-07T13:56:31;6.58;82.16
52656;SHT85;35474;51.032;6.998;2022-12-07T13:59:02;6.40;82.62
52656;SHT85;35474;51.032;6.998;2022-12-07T14:01:31;6.41;82.65
52656;SHT85;35474;51.032;6.998;2022-12-07T14:06:53;6.34;83.06
52656;SHT85;35474;51.032;6.998;2022-12-07T14:09:23;6.48;83.06
52656;SHT85;35474;51.032;6.998;2022-12-07T14:11:55;6.48;83.08
52656;SHT85;35474;51.032;6.998;2022-12-07T14:14:24;6.41;83.13
52656;SHT85;35474;51.032;6.998;2022-12-07T14:17:12;6.35;83.47
52656;SHT85;35474;51.032;6.998;2022-12-07T14:25:09;6.35;83.34
52656;SHT85;35474;51.032;6.998;2022-12-07T14:27:50;6.35;83.73
52656;SHT85;35474;51.032;6.998;2022-12-07T14:30:17;6.35;83.60
52656;SHT85;35474;51.032;6.998;2022-12-07T14:32:44;6.34;83.86
52656;SHT85;35474;51.032;6.998;2022-12-07T14:35:15;6.40;83.91
52656;SHT85;35474;51.032;6.998;2022-12-07T14:37:44;6.47;83.46
52656;SHT85;35474;51.032;6.998;2022-12-07T14:40:16;6.41;83.62
52656;SHT85;35474;51.032;6.998;2022-12-07T14:42:48;6.38;83.65
52656;SHT85;35474;51.032;6.998;2022-12-07T14:45:22;6.38;83.94
52656;SHT85;35474;51.032;6.998;2022-12-07T14:47:49;6.40;83.94
52656;SHT85;35474;51.032;6.998;2022-12-07T14:50:40;6.42;84.18
52656;SHT85;35474;51.032;6.998;2022-12-07T14:53:34;6.49;83.88
52656;SHT85;35474;51.032;6.998;2022-12-07T14:56:03;6.49;84.13
52656;SHT85;35474;51.032;6.998;2022-12-07T14:58:31;6.45;84.28
52656;SHT85;35474;51.032;6.998;2022-12-07T15:00:58;6.34;84.65
52656;SHT85;35474;51.032;6.998;2022-12-07T15:03:25;6.31;84.70
52656;SHT85;35474;51.032;6.998;2022-12-07T15:05:52;6.37;84.86
52656;SHT85;35474;51.032;6.998;2022-12-07T15:08:19;6.41;84.96
52656;SHT85;35474;51.032;6.998;2022-12-07T15:10:45;6.48;84.89
52656;SHT85;35474;51.032;6.998;2022-12-07T15:13:11;6.49;85.00
52656;SHT85;35474;51.032;6.998;2022-12-07T15:16:11;6.44;85.19
52656;SHT85;35474;51.032;6.998;2022-12-07T15:18:42;6.40;85.35
52656;SHT85;35474;51.032;6.998;2022-12-07T15:21:29;6.33;85.81
52656;SHT85;35474;51.032;6.998;2022-12-07T15:23:55;6.31;86.15
52656;SHT85;35474;51.032;6.998;2022-12-07T15:26:22;6.30;86.35
52656;SHT85;35474;51.032;6.998;2022-12-07T15:28:48;6.18;86.19
52656;SHT85;35474;51.032;6.998;2022-12-07T15:31:15;6.20;86.18
52656;SHT85;35474;51.032;6.998;2022-12-07T15:34:03;6.03;83.92
52656;SHT85;35474;51.032;6.998;2022-12-07T15:36:30;5.75;82.35
52656;SHT85;35474;51.032;6.998;2022-12-07T15:38:58;5.59;82.92
52656;SHT85;35474;51.032;6.998;2022-12-07T15:41:40;5.62;83.51
52656;SHT85;35474;51.032;6.998;2022-12-07T15:44:09;5.54;83.76
52656;SHT85;35474;51.032;6.998;2022-12-07T15:46:58;5.48;83.79
52656;SHT85;35474;51.032;6.998;2022-12-07T15:49:25;5.59;83.91
52656;SHT85;35474;51.032;6.998;2022-12-07T15:51:53;5.56;83.76
52656;SHT85;35474;51.032;6.998;2022-12-07T15:54:21;5.56;84.34
52656;SHT85;35474;51.032;6.998;2022-12-07T15:56:49;5.51;84.55
52656;SHT85;35474;51.032;6.998;2022-12-07T15:59:19;5.45;84.85
52656;SHT85;35474;51.032;6.998;2022-12-07T16:01:46;5.45;84.84
52656;SHT85;35474;51.032;6.998;2022-12-07T16:04:13;5.38;85.17
52656;SHT85;35474;51.032;6.998;2022-12-07T16:06:39;5.34;85.30
52656;SHT85;35474;51.032;6.998;2022-12-07T16:09:06;5.35;85.73
52656;SHT85;35474;51.032;6.998;2022-12-07T16:11:32;5.27;86.11
52656;SHT85;35474;51.032;6.998;2022-12-07T16:13:59;5.30;86.57
52656;SHT85;35474;51.032;6.998;2022-12-07T16:16:26;5.31;86.75
52656;SHT85;35474;51.032;6.998;2022-12-07T16:18:53;5.41;86.60
52656;SHT85;35474;51.032;6.998;2022-12-07T16:21:20;5.44;86.56
52656;SHT85;35474;51.032;6.998;2022-12-07T16:23:51;5.42;86.75
52656;SHT85;35474;51.032;6.998;2022-12-07T16:26:19;5.41;87.09
52656;SHT85;35474;51.032;6.998;2022-12-07T16:28:51;5.38;87.29
52656;SHT85;35474;51.032;6.998;2022-12-07T16:31:19;5.32;87.46
52656;SHT85;35474;51.032;6.998;2022-12-07T16:33:48;5.44;87.44
52656;SHT85;35474;51.032;6.998;2022-12-07T16:36:15;5.31;87.38
52656;SHT85;35474;51.032;6.998;2022-12-07T16:39:03;5.32;87.45
52656;SHT85;35474;51.032;6.998;2022-12-07T16:41:30;5.30;87.31
52656;SHT85;35474;51.032;6.998;2022-12-07T16:43:57;5.37;87.25
52656;SHT85;35474;51.032;6.998;2022-12-07T16:46:29;5.46;87.67
52656;SHT85;35474;51.032;6.998;2022-12-07T16:48:55;5.49;86.46
52656;SHT85;35474;51.032;6.998;2022-12-07T16:51:22;5.48;86.32
52656;SHT85;35474;51.032;6.998;2022-12-07T16:53:48;5.63;86.26
52656;SHT85;35474;51.032;6.998;2022-12-07T16:56:15;5.48;86.23
52656;SHT85;35474;51.032;6.998;2022-12-07T16:58:42;5.44;86.75
52656;SHT85;35474;51.032;6.998;2022-12-07T17:01:10;5.49;86.62
52656;SHT85;35474;51.032;6.998;2022-12-07T17:03:38;5.46;86.69
52656;SHT85;35474;51.032;6.998;2022-12-07T17:06:12;5.45;86.75
52656;SHT85;35474;51.032;6.998;2022-12-07T17:08:41;5.52;86.72
52656;SHT85;35474;51.032;6.998;2022-12-07T17:11:11;5.55;86.46
52656;SHT85;35474;51.032;6.998;2022-12-07T17:13:39;5.49;86.40
52656;SHT85;35474;51.032;6.998;2022-12-07T17:16:25;5.51;86.61
52656;SHT85;35474;51.032;6.998;2022-12-07T17:18:51;5.44;86.53
52656;SHT85;35474;51.032;6.998;2022-12-07T17:21:18;5.55;86.79
52656;SHT85;35474;51.032;6.998;2022-12-07T17:23:45;5.39;86.86
52656;SHT85;35474;51.032;6.998;2022-12-07T17:26:13;5.44;87.09
52656;SHT85;35474;51.032;6.998;2022-12-07T17:28:44;5.41;87.04
52656;SHT85;35474;51.032;6.998;2022-12-07T17:31:11;5.34;87.39
52656;SHT85;35474;51.032;6.998;2022-12-07T17:33:39;5.38;87.60
52656;SHT85;35474;51.032;6.998;2022-12-07T17:36:09;5.44;87.63
52656;SHT85;35474;51.032;6.998;2022-12-07T17:38:40;5.41;87.77
52656;SHT85;35474;51.032;6.998;2022-12-07T17:41:10;5.42;87.73
52656;SHT85;35474;51.032;6.998;2022-12-07T17:43:38;5.37;87.73
52656;SHT85;35474;51.032;6.998;2022-12-07T17:46:05;5.37;87.80
52656;SHT85;35474;51.032;6.998;2022-12-07T17:48:33;5.46;87.72
52656;SHT85;35474;51.032;6.998;2022-12-07T17:50:59;5.51;87.61
52656;SHT85;35474;51.032;6.998;2022-12-07T17:53:47;5.51;87.50
52656;SHT85;35474;51.032;6.998;2022-12-07T17:56:17;5.56;87.32
52656;SHT85;35474;51.032;6.998;2022-12-07T17:58:54;5.52;87.22
52656;SHT85;35474;51.032;6.998;2022-12-07T18:01:20;5.54;87.11
52656;SHT85;35474;51.032;6.998;2022-12-07T18:03:50;5.58;87.10
52656;SHT85;35474;51.032;6.998;2022-12-07T18:06:16;5.49;87.14
52656;SHT85;35474;51.032;6.998;2022-12-07T18:08:42;5.46;87.45
52656;SHT85;35474;51.032;6.998;2022-12-07T18:11:09;5.44;87.68
52656;SHT85;35474;51.032;6.998;2022-12-07T18:13:36;5.37;87.80
52656;SHT85;35474;51.032;6.998;2022-12-07T18:16:07;5.31;88.09
52656;SHT85;35474;51.032;6.998;2022-12-07T18:18:35;5.39;88.15
52656;SHT85;35474;51.032;6.998;2022-12-07T18:21:12;5.39;87.92
52656;SHT85;35474;51.032;6.998;2022-12-07T18:23:42;5.39;87.89
52656;SHT85;35474;51.032;6.998;2022-12-07T18:26:10;5.44;88.11
52656;SHT85;35474;51.032;6.998;2022-12-07T18:28:39;5.45;88.02
52656;SHT85;35474;51.032;6.998;2022-12-07T18:31:06;5.41;87.91
52656;SHT85;35474;51.032;6.998;2022-12-07T18:33:41;5.46;87.86
52656;SHT85;35474;51.032;6.998;2022-12-07T18:36:09;5.44;87.80
52656;SHT85;35474;51.032;6.998;2022-12-07T18:38:39;5.44;88.13
52656;SHT85;35474;51.032;6.998;2022-12-07T18:41:06;5.42;87.95
52656;SHT85;35474;51.032;6.998;2022-12-07T18:43:34;5.42;87.99
52656;SHT85;35474;51.032;6.998;2022-12-07T18:46:00;5.37;88.20
52656;SHT85;35474;51.032;6.998;2022-12-07T18:48:28;5.35;88.65
52656;SHT85;35474;51.032;6.998;2022-12-07T18:50:59;5.32;88.83
52656;SHT85;35474;51.032;6.998;2022-12-07T18:53:27;5.27;88.83
52656;SHT85;35474;51.032;6.998;2022-12-07T18:57:34;5.37;88.85
52656;SHT85;35474;51.032;6.998;2022-12-07T19:00:01;5.35;88.71